sensor_id;sensor_type;location;lat;lon;timestamp;P1;durP1;ratioP1;P2;durP2;ratioP2
70455;SDS011;57916;51.996;5.180;2023-02-28T00:01:07;6.90;;;2.58;;
70455;SDS011;57916;51.996;5.180;2023-02-28T00:03:34;3.58;;;2.75;;
70455;SDS011;57916;51.996;5.180;2023-02-28T00:06:02;6.38;;;2.80;;
70455;SDS011;57916;51.996;5.180;2023-02-28T00:08:31;4.90;;;3.00;;
70455;SDS011;57916;51.996;5.180;2023-02-28T00:11:08;3.85;;;2.78;;
70455;SDS011;57916;51.996;5.180;2023-02-28T00:13:37;6.70;;;2.63;;
70455;SDS011;57916;51.996;5.180;2023-02-28T00:16:10;5.82;;;2.83;;
70455;SDS011;57916;51.996;5.180;2023-02-28T00:18:39;4.75;;;3.08;;
70455;SDS011;57916;51.996;5.180;2023-02-28T00:21:06;4.05;;;3.03;;
70455;SDS011;57916;51.996;5.180;2023-02-28T00:23:34;6.32;;;2.92;;
70455;SDS011;57916;51.996;5.180;2023-02-28T00:26:01;3.80;;;3.00;;
70455;SDS011;57916;51.996;5.180;2023-02-28T00:28:28;3.40;;;3.00;;
70455;SDS011;57916;51.996;5.180;2023-02-28T00:30:58;5.95;;;2.85;;
70455;SDS011;57916;51.996;5.180;2023-02-28T00:33:28;4.23;;;3.30;;
70455;SDS011;57916;51.996;5.180;2023-02-28T00:36:02;4.30;;;3.15;;
70455;SDS011;57916;51.996;5.180;2023-02-28T00:38:35;4.03;;;3.10;;
70455;SDS011;57916;51.996;5.180;2023-02-28T00:41:02;4.88;;;2.72;;
70455;SDS011;57916;51.996;5.180;2023-02-28T00:43:34;5.70;;;3.13;;
70455;SDS011;57916;51.996;5.180;2023-02-28T00:46:02;3.92;;;3.17;;
70455;SDS011;57916;51.996;5.180;2023-02-28T00:48:30;6.97;;;3.50;;
70455;SDS011;57916;51.996;5.180;2023-02-28T00:50:57;4.72;;;3.00;;
70455;SDS011;57916;51.996;5.180;2023-02-28T00:53:24;3.72;;;3.08;;
70455;SDS011;57916;51.996;5.180;2023-02-28T00:55:56;5.50;;;3.30;;
70455;SDS011;57916;51.996;5.180;2023-02-28T00:58:26;5.90;;;3.33;;
70455;SDS011;57916;51.996;5.180;2023-02-28T01:00:53;4.90;;;2.92;;
70455;SDS011;57916;51.996;5.180;2023-02-28T01:03:20;4.40;;;3.30;;
70455;SDS011;57916;51.996;5.180;2023-02-28T01:05:48;3.78;;;3.10;;
70455;SDS011;57916;51.996;5.180;2023-02-28T01:08:16;4.80;;;3.60;;
70455;SDS011;57916;51.996;5.180;2023-02-28T01:10:42;6.30;;;3.72;;
70455;SDS011;57916;51.996;5.180;2023-02-28T01:13:12;6.32;;;3.95;;
70455;SDS011;57916;51.996;5.180;2023-02-28T01:15:43;6.28;;;3.90;;
70455;SDS011;57916;51.996;5.180;2023-02-28T01:18:15;6.10;;;3.33;;
70455;SDS011;57916;51.996;5.180;2023-02-28T01:20:42;6.97;;;3.53;;
70455;SDS011;57916;51.996;5.180;2023-02-28T01:23:09;6.60;;;3.50;;
70455;SDS011;57916;51.996;5.180;2023-02-28T01:25:35;7.00;;;3.63;;
70455;SDS011;57916;51.996;5.180;2023-02-28T01:28:04;5.20;;;3.50;;
70455;SDS011;57916;51.996;5.180;2023-02-28T01:30:31;7.10;;;3.33;;
70455;SDS011;57916;51.996;5.180;2023-02-28T01:33:01;9.75;;;3.65;;
70455;SDS011;57916;51.996;5.180;2023-02-28T01:35:31;5.88;;;3.42;;
70455;SDS011;57916;51.996;5.180;2023-02-28T01:38:00;7.70;;;3.55;;
70455;SDS011;57916;51.996;5.180;2023-02-28T01:40:46;6.15;;;3.53;;
70455;SDS011;57916;51.996;5.180;2023-02-28T01:43:27;8.73;;;3.60;;
70455;SDS011;57916;51.996;5.180;2023-02-28T01:45:58;6.00;;;3.30;;
70455;SDS011;57916;51.996;5.180;2023-02-28T01:48:26;4.00;;;3.60;;
70455;SDS011;57916;51.996;5.180;2023-02-28T01:50:58;8.05;;;3.50;;
70455;SDS011;57916;51.996;5.180;2023-02-28T01:53:35;6.07;;;3.20;;
70455;SDS011;57916;51.996;5.180;2023-02-28T01:56:05;5.45;;;3.80;;
70455;SDS011;57916;51.996;5.180;2023-02-28T01:58:35;5.63;;;3.70;;
70455;SDS011;57916;51.996;5.180;2023-02-28T02:01:03;3.90;;;3.22;;
70455;SDS011;57916;51.996;5.180;2023-02-28T02:03:31;4.38;;;3.47;;
70455;SDS011;57916;51.996;5.180;2023-02-28T02:06:00;4.80;;;3.35;;
70455;SDS011;57916;51.996;5.180;2023-02-28T02:08:28;6.88;;;3.28;;
70455;SDS011;57916;51.996;5.180;2023-02-28T02:10:56;9.25;;;3.90;;
70455;SDS011;57916;51.996;5.180;2023-02-28T02:15:59;5.90;;;3.77;;
70455;SDS011;57916;51.996;5.180;2023-02-28T02:21:31;6.03;;;3.80;;
70455;SDS011;57916;51.996;5.180;2023-02-28T02:30:13;6.15;;;4.07;;
70455;SDS011;57916;51.996;5.180;2023-02-28T02:33:01;5.87;;;3.60;;
70455;SDS011;57916;51.996;5.180;2023-02-28T02:41:18;5.00;;;3.75;;
70455;SDS011;57916;51.996;5.180;2023-02-28T02:43:48;3.97;;;3.40;;
70455;SDS011;57916;51.996;5.180;2023-02-28T02:46:27;6.20;;;3.63;;
70455;SDS011;57916;51.996;5.180;2023-02-28T02:48:57;5.72;;;3.80;;
70455;SDS011;57916;51.996;5.180;2023-02-28T02:51:30;4.93;;;3.70;;
70455;SDS011;57916;51.996;5.180;2023-02-28T02:54:04;9.68;;;3.60;;
70455;SDS011;57916;51.996;5.180;2023-02-28T02:56:43;4.05;;;3.65;;
70455;SDS011;57916;51.996;5.180;2023-02-28T02:59:13;4.00;;;3.60;;
70455;SDS011;57916;51.996;5.180;2023-02-28T03:01:52;5.38;;;3.70;;
70455;SDS011;57916;51.996;5.180;2023-02-28T03:04:22;5.60;;;3.50;;
70455;SDS011;57916;51.996;5.180;2023-02-28T03:06:51;7.10;;;4.05;;
70455;SDS011;57916;51.996;5.180;2023-02-28T03:09:21;9.45;;;3.90;;
70455;SDS011;57916;51.996;5.180;2023-02-28T03:11:49;5.60;;;3.90;;
70455;SDS011;57916;51.996;5.180;2023-02-28T03:17:21;8.57;;;3.92;;
70455;SDS011;57916;51.996;5.180;2023-02-28T03:20:33;4.60;;;3.80;;
70455;SDS011;57916;51.996;5.180;2023-02-28T03:23:16;4.83;;;3.93;;
70455;SDS011;57916;51.996;5.180;2023-02-28T03:28:49;7.88;;;3.92;;
70455;SDS011;57916;51.996;5.180;2023-02-28T03:31:28;8.30;;;4.30;;
70455;SDS011;57916;51.996;5.180;2023-02-28T03:34:04;5.30;;;3.92;;
70455;SDS011;57916;51.996;5.180;2023-02-28T03:36:49;5.00;;;4.05;;
70455;SDS011;57916;51.996;5.180;2023-02-28T03:39:24;7.78;;;3.92;;
70455;SDS011;57916;51.996;5.180;2023-02-28T03:41:58;4.68;;;4.20;;
70455;SDS011;57916;51.996;5.180;2023-02-28T03:44:50;5.47;;;3.80;;
70455;SDS011;57916;51.996;5.180;2023-02-28T03:47:33;4.47;;;3.75;;
70455;SDS011;57916;51.996;5.180;2023-02-28T03:55:39;4.63;;;3.92;;
70455;SDS011;57916;51.996;5.180;2023-02-28T03:58:20;6.15;;;3.97;;
70455;SDS011;57916;51.996;5.180;2023-02-28T04:00:56;5.23;;;4.10;;
70455;SDS011;57916;51.996;5.180;2023-02-28T04:03:35;7.10;;;4.38;;
70455;SDS011;57916;51.996;5.180;2023-02-28T04:06:03;6.28;;;3.95;;
70455;SDS011;57916;51.996;5.180;2023-02-28T04:08:31;8.30;;;4.10;;
70455;SDS011;57916;51.996;5.180;2023-02-28T04:13:49;6.38;;;4.03;;
70455;SDS011;57916;51.996;5.180;2023-02-28T04:16:16;6.18;;;3.97;;
70455;SDS011;57916;51.996;5.180;2023-02-28T04:19:00;5.85;;;3.85;;
70455;SDS011;57916;51.996;5.180;2023-02-28T04:21:32;8.25;;;3.92;;
70455;SDS011;57916;51.996;5.180;2023-02-28T04:24:01;5.70;;;3.53;;
70455;SDS011;57916;51.996;5.180;2023-02-28T04:26:29;6.75;;;3.67;;
70455;SDS011;57916;51.996;5.180;2023-02-28T04:28:58;4.78;;;4.00;;
70455;SDS011;57916;51.996;5.180;2023-02-28T04:31:25;1.15;;;1.10;;
70455;SDS011;57916;51.996;5.180;2023-02-28T04:33:53;4.97;;;2.72;;
70455;SDS011;57916;51.996;5.180;2023-02-28T04:36:20;1.70;;;1.60;;
70455;SDS011;57916;51.996;5.180;2023-02-28T04:38:46;5.85;;;3.10;;
70455;SDS011;57916;51.996;5.180;2023-02-28T04:41:13;5.25;;;3.30;;
70455;SDS011;57916;51.996;5.180;2023-02-28T04:43:40;3.30;;;2.90;;
70455;SDS011;57916;51.996;5.180;2023-02-28T04:46:07;4.03;;;2.40;;
70455;SDS011;57916;51.996;5.180;2023-02-28T04:48:36;6.28;;;3.08;;
70455;SDS011;57916;51.996;5.180;2023-02-28T04:51:06;3.55;;;2.85;;
70455;SDS011;57916;51.996;5.180;2023-02-28T04:53:36;4.30;;;2.90;;
70455;SDS011;57916;51.996;5.180;2023-02-28T04:56:04;3.00;;;2.35;;
70455;SDS011;57916;51.996;5.180;2023-02-28T04:58:32;2.60;;;2.42;;
70455;SDS011;57916;51.996;5.180;2023-02-28T05:01:03;4.32;;;2.67;;
70455;SDS011;57916;51.996;5.180;2023-02-28T05:03:39;3.20;;;2.90;;
70455;SDS011;57916;51.996;5.180;2023-02-28T05:06:09;4.72;;;3.22;;
70455;SDS011;57916;51.996;5.180;2023-02-28T05:08:37;4.82;;;3.10;;
70455;SDS011;57916;51.996;5.180;2023-02-28T05:11:06;4.75;;;3.30;;
70455;SDS011;57916;51.996;5.180;2023-02-28T05:13:42;4.95;;;2.55;;
70455;SDS011;57916;51.996;5.180;2023-02-28T05:16:09;3.63;;;3.03;;
70455;SDS011;57916;51.996;5.180;2023-02-28T05:18:36;4.10;;;3.30;;
70455;SDS011;57916;51.996;5.180;2023-02-28T05:21:04;3.40;;;3.10;;
70455;SDS011;57916;51.996;5.180;2023-02-28T05:23:31;3.50;;;3.20;;
70455;SDS011;57916;51.996;5.180;2023-02-28T05:25:59;4.07;;;3.08;;
70455;SDS011;57916;51.996;5.180;2023-02-28T05:28:25;3.80;;;3.22;;
70455;SDS011;57916;51.996;5.180;2023-02-28T05:30:53;7.82;;;3.47;;
70455;SDS011;57916;51.996;5.180;2023-02-28T05:33:19;4.97;;;3.40;;
70455;SDS011;57916;51.996;5.180;2023-02-28T05:35:46;3.97;;;3.33;;
70455;SDS011;57916;51.996;5.180;2023-02-28T05:38:13;8.38;;;3.58;;
70455;SDS011;57916;51.996;5.180;2023-02-28T05:40:40;7.70;;;3.72;;
70455;SDS011;57916;51.996;5.180;2023-02-28T05:43:09;4.67;;;3.60;;
70455;SDS011;57916;51.996;5.180;2023-02-28T05:45:38;6.85;;;3.70;;
70455;SDS011;57916;51.996;5.180;2023-02-28T05:48:05;8.73;;;3.50;;
70455;SDS011;57916;51.996;5.180;2023-02-28T05:50:32;3.95;;;3.55;;
70455;SDS011;57916;51.996;5.180;2023-02-28T05:52:59;3.50;;;3.20;;
70455;SDS011;57916;51.996;5.180;2023-02-28T05:55:25;4.07;;;3.20;;
70455;SDS011;57916;51.996;5.180;2023-02-28T05:57:52;4.80;;;3.13;;
70455;SDS011;57916;51.996;5.180;2023-02-28T06:00:19;4.28;;;3.38;;
70455;SDS011;57916;51.996;5.180;2023-02-28T06:02:46;5.55;;;3.47;;
70455;SDS011;57916;51.996;5.180;2023-02-28T06:05:14;4.70;;;3.50;;
70455;SDS011;57916;51.996;5.180;2023-02-28T06:07:43;5.72;;;3.70;;
70455;SDS011;57916;51.996;5.180;2023-02-28T06:10:10;5.35;;;3.72;;
70455;SDS011;57916;51.996;5.180;2023-02-28T06:12:38;5.20;;;3.60;;
70455;SDS011;57916;51.996;5.180;2023-02-28T06:15:05;4.78;;;3.50;;
70455;SDS011;57916;51.996;5.180;2023-02-28T06:17:33;3.92;;;3.60;;
70455;SDS011;57916;51.996;5.180;2023-02-28T06:19:59;5.25;;;3.80;;
70455;SDS011;57916;51.996;5.180;2023-02-28T06:22:26;4.95;;;3.55;;
70455;SDS011;57916;51.996;5.180;2023-02-28T06:24:53;4.72;;;3.95;;
70455;SDS011;57916;51.996;5.180;2023-02-28T06:27:21;7.25;;;3.90;;
70455;SDS011;57916;51.996;5.180;2023-02-28T06:29:48;4.57;;;3.80;;
70455;SDS011;57916;51.996;5.180;2023-02-28T06:32:15;5.40;;;3.90;;
70455;SDS011;57916;51.996;5.180;2023-02-28T06:34:42;4.28;;;3.70;;
70455;SDS011;57916;51.996;5.180;2023-02-28T06:37:09;4.32;;;3.67;;
70455;SDS011;57916;51.996;5.180;2023-02-28T06:39:36;7.97;;;4.10;;
70455;SDS011;57916;51.996;5.180;2023-02-28T06:42:03;9.77;;;4.40;;
70455;SDS011;57916;51.996;5.180;2023-02-28T06:44:30;9.73;;;4.05;;
70455;SDS011;57916;51.996;5.180;2023-02-28T06:47:02;4.25;;;3.95;;
70455;SDS011;57916;51.996;5.180;2023-02-28T06:49:31;7.30;;;4.13;;
70455;SDS011;57916;51.996;5.180;2023-02-28T06:51:59;5.45;;;3.97;;
70455;SDS011;57916;51.996;5.180;2023-02-28T06:54:26;4.40;;;4.00;;
70455;SDS011;57916;51.996;5.180;2023-02-28T06:56:53;4.50;;;4.07;;
70455;SDS011;57916;51.996;5.180;2023-02-28T06:59:20;5.73;;;4.40;;
70455;SDS011;57916;51.996;5.180;2023-02-28T07:01:47;5.13;;;4.15;;
70455;SDS011;57916;51.996;5.180;2023-02-28T07:04:14;4.75;;;4.32;;
70455;SDS011;57916;51.996;5.180;2023-02-28T07:06:41;7.00;;;4.60;;
70455;SDS011;57916;51.996;5.180;2023-02-28T07:09:08;6.40;;;4.70;;
70455;SDS011;57916;51.996;5.180;2023-02-28T07:11:35;5.18;;;4.60;;
70455;SDS011;57916;51.996;5.180;2023-02-28T07:14:02;6.38;;;4.93;;
70455;SDS011;57916;51.996;5.180;2023-02-28T07:16:29;8.50;;;4.22;;
70455;SDS011;57916;51.996;5.180;2023-02-28T07:18:56;5.05;;;4.47;;
70455;SDS011;57916;51.996;5.180;2023-02-28T07:21:22;7.05;;;4.68;;
70455;SDS011;57916;51.996;5.180;2023-02-28T07:23:49;7.13;;;4.47;;
70455;SDS011;57916;51.996;5.180;2023-02-28T07:26:18;5.00;;;4.45;;
70455;SDS011;57916;51.996;5.180;2023-02-28T07:28:47;12.90;;;4.40;;
70455;SDS011;57916;51.996;5.180;2023-02-28T07:31:15;7.50;;;4.20;;
70455;SDS011;57916;51.996;5.180;2023-02-28T07:33:43;8.00;;;4.47;;
70455;SDS011;57916;51.996;5.180;2023-02-28T07:36:12;5.07;;;4.30;;
70455;SDS011;57916;51.996;5.180;2023-02-28T07:38:45;5.78;;;4.55;;
70455;SDS011;57916;51.996;5.180;2023-02-28T07:41:18;4.88;;;4.43;;
70455;SDS011;57916;51.996;5.180;2023-02-28T07:43:48;6.65;;;4.05;;
70455;SDS011;57916;51.996;5.180;2023-02-28T07:46:15;4.68;;;4.07;;
70455;SDS011;57916;51.996;5.180;2023-02-28T07:48:43;4.80;;;4.32;;
70455;SDS011;57916;51.996;5.180;2023-02-28T07:51:10;7.22;;;4.38;;
70455;SDS011;57916;51.996;5.180;2023-02-28T07:53:38;6.93;;;4.18;;
70455;SDS011;57916;51.996;5.180;2023-02-28T07:56:05;7.53;;;4.43;;
70455;SDS011;57916;51.996;5.180;2023-02-28T07:58:33;8.13;;;4.20;;
70455;SDS011;57916;51.996;5.180;2023-02-28T08:01:07;5.20;;;4.20;;
70455;SDS011;57916;51.996;5.180;2023-02-28T08:03:35;7.10;;;4.68;;
70455;SDS011;57916;51.996;5.180;2023-02-28T08:06:03;5.20;;;4.60;;
70455;SDS011;57916;51.996;5.180;2023-02-28T08:08:31;5.72;;;4.82;;
70455;SDS011;57916;51.996;5.180;2023-02-28T08:10:59;5.45;;;4.68;;
70455;SDS011;57916;51.996;5.180;2023-02-28T08:13:27;5.53;;;4.28;;
70455;SDS011;57916;51.996;5.180;2023-02-28T08:15:55;5.78;;;4.10;;
70455;SDS011;57916;51.996;5.180;2023-02-28T08:18:23;7.22;;;4.97;;
70455;SDS011;57916;51.996;5.180;2023-02-28T08:20:50;5.65;;;5.10;;
70455;SDS011;57916;51.996;5.180;2023-02-28T08:23:17;5.57;;;4.93;;
70455;SDS011;57916;51.996;5.180;2023-02-28T08:25:44;4.25;;;3.85;;
70455;SDS011;57916;51.996;5.180;2023-02-28T08:28:11;4.68;;;3.83;;
70455;SDS011;57916;51.996;5.180;2023-02-28T08:30:38;4.88;;;3.40;;
70455;SDS011;57916;51.996;5.180;2023-02-28T08:33:07;4.05;;;3.75;;
70455;SDS011;57916;51.996;5.180;2023-02-28T08:35:35;4.57;;;3.45;;
70455;SDS011;57916;51.996;5.180;2023-02-28T08:38:03;3.75;;;3.45;;
70455;SDS011;57916;51.996;5.180;2023-02-28T08:40:29;2.50;;;2.30;;
70455;SDS011;57916;51.996;5.180;2023-02-28T08:42:56;3.83;;;3.45;;
70455;SDS011;57916;51.996;5.180;2023-02-28T08:45:24;6.68;;;3.55;;
70455;SDS011;57916;51.996;5.180;2023-02-28T08:47:51;3.85;;;3.50;;
70455;SDS011;57916;51.996;5.180;2023-02-28T08:50:20;4.47;;;3.65;;
70455;SDS011;57916;51.996;5.180;2023-02-28T08:52:47;4.13;;;3.13;;
70455;SDS011;57916;51.996;5.180;2023-02-28T08:55:14;3.38;;;2.60;;
70455;SDS011;57916;51.996;5.180;2023-02-28T08:57:41;5.63;;;2.90;;
70455;SDS011;57916;51.996;5.180;2023-02-28T09:00:08;4.28;;;2.97;;
70455;SDS011;57916;51.996;5.180;2023-02-28T09:02:36;4.10;;;2.60;;
70455;SDS011;57916;51.996;5.180;2023-02-28T09:05:04;2.80;;;2.60;;
70455;SDS011;57916;51.996;5.180;2023-02-28T09:07:31;3.30;;;2.90;;
70455;SDS011;57916;51.996;5.180;2023-02-28T09:09:58;5.57;;;2.20;;
70455;SDS011;57916;51.996;5.180;2023-02-28T09:12:25;2.57;;;2.30;;
70455;SDS011;57916;51.996;5.180;2023-02-28T09:14:53;2.50;;;2.30;;
70455;SDS011;57916;51.996;5.180;2023-02-28T09:17:20;3.55;;;1.63;;
70455;SDS011;57916;51.996;5.180;2023-02-28T09:19:48;2.70;;;1.75;;
70455;SDS011;57916;51.996;5.180;2023-02-28T09:22:15;3.00;;;1.90;;
70455;SDS011;57916;51.996;5.180;2023-02-28T09:24:43;2.17;;;1.90;;
70455;SDS011;57916;51.996;5.180;2023-02-28T09:27:11;4.13;;;2.08;;
70455;SDS011;57916;51.996;5.180;2023-02-28T09:29:40;2.20;;;1.80;;
70455;SDS011;57916;51.996;5.180;2023-02-28T09:32:06;3.55;;;1.50;;
70455;SDS011;57916;51.996;5.180;2023-02-28T09:34:33;2.70;;;1.60;;
70455;SDS011;57916;51.996;5.180;2023-02-28T09:37:03;2.30;;;1.13;;
70455;SDS011;57916;51.996;5.180;2023-02-28T09:39:30;1.40;;;1.30;;
70455;SDS011;57916;51.996;5.180;2023-02-28T09:41:57;1.20;;;1.20;;
70455;SDS011;57916;51.996;5.180;2023-02-28T09:44:38;2.10;;;1.48;;
70455;SDS011;57916;51.996;5.180;2023-02-28T09:47:13;2.90;;;1.65;;
70455;SDS011;57916;51.996;5.180;2023-02-28T09:49:46;1.80;;;1.70;;
70455;SDS011;57916;51.996;5.180;2023-02-28T09:52:16;5.85;;;1.70;;
70455;SDS011;57916;51.996;5.180;2023-02-28T09:54:49;6.10;;;2.10;;
70455;SDS011;57916;51.996;5.180;2023-02-28T10:05:19;1.70;;;1.60;;
70455;SDS011;57916;51.996;5.180;2023-02-28T10:08:02;2.45;;;1.80;;
70455;SDS011;57916;51.996;5.180;2023-02-28T10:10:42;1.85;;;1.75;;
70455;SDS011;57916;51.996;5.180;2023-02-28T10:13:17;2.67;;;1.93;;
70455;SDS011;57916;51.996;5.180;2023-02-28T10:16:03;2.00;;;1.90;;
70455;SDS011;57916;51.996;5.180;2023-02-28T10:18:45;1.83;;;1.73;;
70455;SDS011;57916;51.996;5.180;2023-02-28T10:21:17;1.63;;;1.52;;
70455;SDS011;57916;51.996;5.180;2023-02-28T10:24:15;3.00;;;1.75;;
70455;SDS011;57916;51.996;5.180;2023-02-28T10:26:56;3.30;;;1.87;;
70455;SDS011;57916;51.996;5.180;2023-02-28T10:29:36;2.03;;;1.70;;
70455;SDS011;57916;51.996;5.180;2023-02-28T10:32:05;1.90;;;1.80;;
70455;SDS011;57916;51.996;5.180;2023-02-28T10:34:32;1.40;;;1.30;;
70455;SDS011;57916;51.996;5.180;2023-02-28T10:36:59;2.30;;;1.75;;
70455;SDS011;57916;51.996;5.180;2023-02-28T10:39:43;3.60;;;1.70;;
70455;SDS011;57916;51.996;5.180;2023-02-28T10:42:28;1.27;;;1.27;;
70455;SDS011;57916;51.996;5.180;2023-02-28T10:50:28;1.40;;;1.30;;
70455;SDS011;57916;51.996;5.180;2023-02-28T10:52:55;1.88;;;1.77;;
70455;SDS011;57916;51.996;5.180;2023-02-28T10:56:06;1.27;;;1.15;;
70455;SDS011;57916;51.996;5.180;2023-02-28T11:06:59;2.88;;;1.80;;
70455;SDS011;57916;51.996;5.180;2023-02-28T11:09:35;1.30;;;1.20;;
70455;SDS011;57916;51.996;5.180;2023-02-28T11:12:16;1.35;;;1.27;;
70455;SDS011;57916;51.996;5.180;2023-02-28T11:14:53;1.25;;;1.10;;
70455;SDS011;57916;51.996;5.180;2023-02-28T11:17:24;1.50;;;1.40;;
70455;SDS011;57916;51.996;5.180;2023-02-28T11:19:59;1.50;;;1.40;;
70455;SDS011;57916;51.996;5.180;2023-02-28T11:22:31;2.45;;;1.30;;
70455;SDS011;57916;51.996;5.180;2023-02-28T11:25:06;1.55;;;1.45;;
70455;SDS011;57916;51.996;5.180;2023-02-28T11:30:03;1.52;;;1.42;;
70455;SDS011;57916;51.996;5.180;2023-02-28T11:32:53;3.17;;;1.55;;
70455;SDS011;57916;51.996;5.180;2023-02-28T11:38:02;1.33;;;1.20;;
70455;SDS011;57916;51.996;5.180;2023-02-28T11:40:42;1.02;;;0.98;;
70455;SDS011;57916;51.996;5.180;2023-02-28T11:48:33;0.98;;;0.98;;
70455;SDS011;57916;51.996;5.180;2023-02-28T11:51:19;1.70;;;1.60;;
70455;SDS011;57916;51.996;5.180;2023-02-28T11:54:12;1.70;;;1.60;;
70455;SDS011;57916;51.996;5.180;2023-02-28T11:57:14;1.60;;;1.48;;
70455;SDS011;57916;51.996;5.180;2023-02-28T12:10:38;1.80;;;1.70;;
70455;SDS011;57916;51.996;5.180;2023-02-28T12:13:23;1.75;;;1.63;;
70455;SDS011;57916;51.996;5.180;2023-02-28T12:24:42;1.75;;;1.65;;
70455;SDS011;57916;51.996;5.180;2023-02-28T12:27:24;1.80;;;1.70;;
70455;SDS011;57916;51.996;5.180;2023-02-28T12:30:02;2.58;;;1.77;;
70455;SDS011;57916;51.996;5.180;2023-02-28T12:32:40;1.70;;;1.60;;
70455;SDS011;57916;51.996;5.180;2023-02-28T12:35:14;1.70;;;1.60;;
70455;SDS011;57916;51.996;5.180;2023-02-28T12:40:44;1.73;;;1.63;;
70455;SDS011;57916;51.996;5.180;2023-02-28T12:43:38;2.33;;;1.60;;
70455;SDS011;57916;51.996;5.180;2023-02-28T12:48:43;2.03;;;1.67;;
70455;SDS011;57916;51.996;5.180;2023-02-28T12:51:12;1.10;;;1.10;;
70455;SDS011;57916;51.996;5.180;2023-02-28T12:56:40;1.80;;;1.23;;
70455;SDS011;57916;51.996;5.180;2023-02-28T13:02:01;0.40;;;0.40;;
70455;SDS011;57916;51.996;5.180;2023-02-28T13:04:43;2.55;;;1.70;;
70455;SDS011;57916;51.996;5.180;2023-02-28T13:07:49;1.40;;;1.30;;
70455;SDS011;57916;51.996;5.180;2023-02-28T13:10:40;1.60;;;1.50;;
70455;SDS011;57916;51.996;5.180;2023-02-28T13:13:13;1.60;;;1.50;;
70455;SDS011;57916;51.996;5.180;2023-02-28T13:18:37;1.87;;;1.77;;
70455;SDS011;57916;51.996;5.180;2023-02-28T13:21:07;1.70;;;1.60;;
70455;SDS011;57916;51.996;5.180;2023-02-28T13:23:37;1.70;;;1.60;;
70455;SDS011;57916;51.996;5.180;2023-02-28T13:26:13;1.50;;;1.50;;
70455;SDS011;57916;51.996;5.180;2023-02-28T13:31:21;2.00;;;1.80;;
70455;SDS011;57916;51.996;5.180;2023-02-28T13:36:29;1.88;;;1.70;;
70455;SDS011;57916;51.996;5.180;2023-02-28T13:39:01;4.40;;;1.90;;
70455;SDS011;57916;51.996;5.180;2023-02-28T13:41:49;1.27;;;1.17;;
70455;SDS011;57916;51.996;5.180;2023-02-28T14:03:01;0.80;;;0.80;;
70455;SDS011;57916;51.996;5.180;2023-02-28T14:05:34;0.85;;;0.85;;
70455;SDS011;57916;51.996;5.180;2023-02-28T14:08:06;1.63;;;1.52;;
70455;SDS011;57916;51.996;5.180;2023-02-28T14:10:42;1.27;;;1.17;;
70455;SDS011;57916;51.996;5.180;2023-02-28T14:15:57;0.77;;;0.77;;
70455;SDS011;57916;51.996;5.180;2023-02-28T14:21:10;0.90;;;0.80;;
70455;SDS011;57916;51.996;5.180;2023-02-28T14:38:18;0.95;;;0.95;;
70455;SDS011;57916;51.996;5.180;2023-02-28T14:40:47;2.13;;;1.70;;
70455;SDS011;57916;51.996;5.180;2023-02-28T14:43:19;1.30;;;1.30;;
70455;SDS011;57916;51.996;5.180;2023-02-28T14:45:49;2.42;;;1.00;;
70455;SDS011;57916;51.996;5.180;2023-02-28T14:48:19;1.25;;;1.20;;
70455;SDS011;57916;51.996;5.180;2023-02-28T14:50:56;1.02;;;1.02;;
70455;SDS011;57916;51.996;5.180;2023-02-28T14:53:26;1.30;;;1.20;;
70455;SDS011;57916;51.996;5.180;2023-02-28T14:55:55;1.13;;;1.13;;
70455;SDS011;57916;51.996;5.180;2023-02-28T14:58:26;2.00;;;1.90;;
70455;SDS011;57916;51.996;5.180;2023-02-28T15:00:56;1.38;;;1.38;;
70455;SDS011;57916;51.996;5.180;2023-02-28T15:03:29;1.20;;;1.20;;
70455;SDS011;57916;51.996;5.180;2023-02-28T15:05:59;2.10;;;2.00;;
70455;SDS011;57916;51.996;5.180;2023-02-28T15:08:28;2.10;;;1.90;;
70455;SDS011;57916;51.996;5.180;2023-02-28T15:11:02;1.27;;;1.27;;
70455;SDS011;57916;51.996;5.180;2023-02-28T15:16:17;1.52;;;1.45;;
70455;SDS011;57916;51.996;5.180;2023-02-28T15:18:48;2.15;;;1.10;;
70455;SDS011;57916;51.996;5.180;2023-02-28T15:21:23;1.67;;;1.60;;
70455;SDS011;57916;51.996;5.180;2023-02-28T15:23:54;1.50;;;1.30;;
70455;SDS011;57916;51.996;5.180;2023-02-28T15:26:25;2.10;;;0.90;;
70455;SDS011;57916;51.996;5.180;2023-02-28T15:29:01;0.90;;;0.90;;
70455;SDS011;57916;51.996;5.180;2023-02-28T15:31:33;0.90;;;0.90;;
70455;SDS011;57916;51.996;5.180;2023-02-28T15:34:43;0.95;;;0.90;;
70455;SDS011;57916;51.996;5.180;2023-02-28T15:40:05;0.88;;;0.88;;
70455;SDS011;57916;51.996;5.180;2023-02-28T15:42:36;1.02;;;0.93;;
70455;SDS011;57916;51.996;5.180;2023-02-28T15:45:03;0.88;;;0.88;;
70455;SDS011;57916;51.996;5.180;2023-02-28T15:47:31;1.92;;;1.30;;
70455;SDS011;57916;51.996;5.180;2023-02-28T15:49:59;0.90;;;0.90;;
70455;SDS011;57916;51.996;5.180;2023-02-28T15:55:20;0.77;;;0.70;;
70455;SDS011;57916;51.996;5.180;2023-02-28T15:57:55;1.67;;;1.40;;
70455;SDS011;57916;51.996;5.180;2023-02-28T16:00:27;1.30;;;1.20;;
70455;SDS011;57916;51.996;5.180;2023-02-28T16:02:55;1.53;;;1.43;;
70455;SDS011;57916;51.996;5.180;2023-02-28T16:05:24;1.57;;;1.17;;
70455;SDS011;57916;51.996;5.180;2023-02-28T16:07:59;1.15;;;1.15;;
70455;SDS011;57916;51.996;5.180;2023-02-28T16:10:40;0.85;;;0.85;;
70455;SDS011;57916;51.996;5.180;2023-02-28T16:13:08;1.90;;;0.90;;
70455;SDS011;57916;51.996;5.180;2023-02-28T16:15:38;1.08;;;1.08;;
70455;SDS011;57916;51.996;5.180;2023-02-28T16:18:12;2.30;;;1.40;;
70455;SDS011;57916;51.996;5.180;2023-02-28T16:20:39;2.63;;;1.60;;
70455;SDS011;57916;51.996;5.180;2023-02-28T16:23:06;1.15;;;1.05;;
70455;SDS011;57916;51.996;5.180;2023-02-28T16:25:35;1.73;;;1.60;;
70455;SDS011;57916;51.996;5.180;2023-02-28T16:28:23;2.65;;;1.52;;
70455;SDS011;57916;51.996;5.180;2023-02-28T16:30:53;1.40;;;1.30;;
70455;SDS011;57916;51.996;5.180;2023-02-28T16:33:20;1.50;;;1.45;;
70455;SDS011;57916;51.996;5.180;2023-02-28T16:35:47;4.50;;;1.50;;
70455;SDS011;57916;51.996;5.180;2023-02-28T16:38:15;1.45;;;1.35;;
70455;SDS011;57916;51.996;5.180;2023-02-28T16:40:42;1.50;;;1.40;;
70455;SDS011;57916;51.996;5.180;2023-02-28T16:43:15;2.10;;;1.33;;
70455;SDS011;57916;51.996;5.180;2023-02-28T16:45:45;2.00;;;1.80;;
70455;SDS011;57916;51.996;5.180;2023-02-28T16:48:13;1.88;;;1.77;;
70455;SDS011;57916;51.996;5.180;2023-02-28T16:50:42;2.03;;;1.80;;
70455;SDS011;57916;51.996;5.180;2023-02-28T16:53:10;2.00;;;1.90;;
70455;SDS011;57916;51.996;5.180;2023-02-28T16:55:37;1.95;;;1.85;;
70455;SDS011;57916;51.996;5.180;2023-02-28T16:58:04;2.20;;;2.00;;
70455;SDS011;57916;51.996;5.180;2023-02-28T17:00:32;2.17;;;1.97;;
70455;SDS011;57916;51.996;5.180;2023-02-28T17:02:59;1.95;;;1.85;;
70455;SDS011;57916;51.996;5.180;2023-02-28T17:05:26;1.67;;;1.58;;
70455;SDS011;57916;51.996;5.180;2023-02-28T17:08:01;2.23;;;1.90;;
70455;SDS011;57916;51.996;5.180;2023-02-28T17:10:28;1.85;;;1.75;;
70455;SDS011;57916;51.996;5.180;2023-02-28T17:12:55;3.25;;;2.17;;
70455;SDS011;57916;51.996;5.180;2023-02-28T17:15:38;2.15;;;2.05;;
70455;SDS011;57916;51.996;5.180;2023-02-28T17:18:08;3.08;;;2.10;;
70455;SDS011;57916;51.996;5.180;2023-02-28T17:20:39;2.08;;;1.98;;
70455;SDS011;57916;51.996;5.180;2023-02-28T17:23:08;2.00;;;1.90;;
70455;SDS011;57916;51.996;5.180;2023-02-28T17:25:35;4.25;;;2.17;;
70455;SDS011;57916;51.996;5.180;2023-02-28T17:28:02;2.60;;;2.40;;
70455;SDS011;57916;51.996;5.180;2023-02-28T17:30:31;2.30;;;2.20;;
70455;SDS011;57916;51.996;5.180;2023-02-28T17:33:00;3.83;;;2.20;;
70455;SDS011;57916;51.996;5.180;2023-02-28T17:35:28;2.58;;;2.20;;
70455;SDS011;57916;51.996;5.180;2023-02-28T17:37:54;1.85;;;1.70;;
70455;SDS011;57916;51.996;5.180;2023-02-28T17:40:22;2.38;;;1.95;;
70455;SDS011;57916;51.996;5.180;2023-02-28T17:42:49;2.08;;;1.98;;